sensor_id;sensor_type;location;lat;lon;timestamp;pressure;altitude;pressure_sealevel;temperature;humidity
31225;BME280;17847;31.524;74.366;2023-10-08T00:02:11;98152.41;;;26.02;nan
31225;BME280;17847;31.524;74.366;2023-10-08T00:04:43;98151.69;;;25.97;nan
31225;BME280;17847;31.524;74.366;2023-10-08T00:07:12;98153.88;;;25.59;nan
31225;BME280;17847;31.524;74.366;2023-10-08T00:09:42;98157.56;;;25.63;nan
31225;BME280;17847;31.524;74.366;2023-10-08T00:12:11;98156.34;;;25.82;nan
31225;BME280;17847;31.524;74.366;2023-10-08T00:14:42;98165.91;;;25.80;nan
31225;BME280;17847;31.524;74.366;2023-10-08T00:17:17;98165.59;;;25.81;nan
31225;BME280;17847;31.524;74.366;2023-10-08T00:19:47;98177.41;;;25.99;nan
31225;BME280;17847;31.524;74.366;2023-10-08T00:22:21;98166.81;;;25.75;nan
31225;BME280;17847;31.524;74.366;2023-10-08T00:24:50;98166.69;;;25.80;nan
31225;BME280;17847;31.524;74.366;2023-10-08T00:27:26;98173.41;;;25.97;nan
31225;BME280;17847;31.524;74.366;2023-10-08T00:29:56;98176.19;;;26.05;nan
31225;BME280;17847;31.524;74.366;2023-10-08T00:32:26;98175.41;;;26.05;nan
31225;BME280;17847;31.524;74.366;2023-10-08T00:34:55;98180.94;;;26.00;nan
31225;BME280;17847;31.524;74.366;2023-10-08T00:37:24;98186.72;;;25.84;nan
31225;BME280;17847;31.524;74.366;2023-10-08T00:39:56;98177.47;;;25.72;nan
31225;BME280;17847;31.524;74.366;2023-10-08T00:42:26;98180.31;;;25.67;nan
31225;BME280;17847;31.524;74.366;2023-10-08T00:44:57;98184.91;;;25.80;nan
31225;BME280;17847;31.524;74.366;2023-10-08T00:47:29;98193.25;;;25.83;nan
31225;BME280;17847;31.524;74.366;2023-10-08T00:50:03;98192.94;;;25.71;nan
31225;BME280;17847;31.524;74.366;2023-10-08T00:52:35;98189.00;;;25.50;nan
31225;BME280;17847;31.524;74.366;2023-10-08T00:55:14;98194.34;;;25.55;nan
31225;BME280;17847;31.524;74.366;2023-10-08T00:57:53;98198.97;;;25.68;nan
31225;BME280;17847;31.524;74.366;2023-10-08T01:00:26;98207.19;;;25.77;nan
31225;BME280;17847;31.524;74.366;2023-10-08T01:03:02;98211.53;;;25.78;nan
31225;BME280;17847;31.524;74.366;2023-10-08T01:05:39;98213.22;;;25.87;nan
31225;BME280;17847;31.524;74.366;2023-10-08T01:08:16;98218.63;;;26.01;nan
31225;BME280;17847;31.524;74.366;2023-10-08T01:11:22;98228.16;;;25.99;nan
31225;BME280;17847;31.524;74.366;2023-10-08T01:14:18;98235.69;;;26.15;nan
31225;BME280;17847;31.524;74.366;2023-10-08T01:16:49;98236.31;;;25.99;nan
31225;BME280;17847;31.524;74.366;2023-10-08T01:19:19;98244.47;;;25.99;nan
31225;BME280;17847;31.524;74.366;2023-10-08T01:21:49;98236.94;;;25.82;nan
31225;BME280;17847;31.524;74.366;2023-10-08T01:24:19;98236.84;;;25.60;nan
31225;BME280;17847;31.524;74.366;2023-10-08T01:26:53;98243.19;;;25.82;nan
31225;BME280;17847;31.524;74.366;2023-10-08T01:29:22;98251.59;;;26.08;nan
31225;BME280;17847;31.524;74.366;2023-10-08T01:31:53;98249.47;;;26.19;nan
31225;BME280;17847;31.524;74.366;2023-10-08T01:34:23;98251.97;;;26.29;nan
31225;BME280;17847;31.524;74.366;2023-10-08T01:36:59;98247.59;;;26.06;nan
31225;BME280;17847;31.524;74.366;2023-10-08T01:39:32;98254.31;;;26.22;nan
31225;BME280;17847;31.524;74.366;2023-10-08T01:42:01;98263.22;;;26.36;nan
31225;BME280;17847;31.524;74.366;2023-10-08T01:44:30;98267.63;;;26.46;nan
31225;BME280;17847;31.524;74.366;2023-10-08T01:47:02;98272.09;;;26.28;nan
31225;BME280;17847;31.524;74.366;2023-10-08T01:49:35;98270.78;;;26.12;nan
31225;BME280;17847;31.524;74.366;2023-10-08T01:52:06;98267.97;;;26.17;nan
31225;BME280;17847;31.524;74.366;2023-10-08T01:54:47;98272.59;;;26.03;nan
31225;BME280;17847;31.524;74.366;2023-10-08T01:57:16;98280.94;;;26.20;nan
31225;BME280;17847;31.524;74.366;2023-10-08T01:59:46;98280.72;;;26.30;nan
31225;BME280;17847;31.524;74.366;2023-10-08T02:02:15;98290.91;;;26.60;nan
31225;BME280;17847;31.524;74.366;2023-10-08T02:04:45;98289.66;;;26.44;nan
31225;BME280;17847;31.524;74.366;2023-10-08T02:07:14;98295.38;;;26.43;nan
31225;BME280;17847;31.524;74.366;2023-10-08T02:09:43;98293.28;;;26.40;nan
31225;BME280;17847;31.524;74.366;2023-10-08T02:12:13;98294.28;;;26.44;nan
31225;BME280;17847;31.524;74.366;2023-10-08T02:14:42;98295.16;;;26.53;nan
31225;BME280;17847;31.524;74.366;2023-10-08T02:17:13;98293.50;;;26.65;nan
31225;BME280;17847;31.524;74.366;2023-10-08T02:19:42;98297.63;;;26.76;nan
31225;BME280;17847;31.524;74.366;2023-10-08T02:22:12;98302.84;;;26.51;nan
31225;BME280;17847;31.524;74.366;2023-10-08T02:24:41;98307.84;;;26.57;nan
31225;BME280;17847;31.524;74.366;2023-10-08T02:27:12;98302.63;;;26.47;nan
31225;BME280;17847;31.524;74.366;2023-10-08T02:29:43;98308.03;;;26.61;nan
31225;BME280;17847;31.524;74.366;2023-10-08T02:32:13;98314.38;;;26.92;nan
31225;BME280;17847;31.524;74.366;2023-10-08T02:34:42;98311.84;;;26.96;nan
31225;BME280;17847;31.524;74.366;2023-10-08T02:37:12;98309.94;;;27.18;nan
31225;BME280;17847;31.524;74.366;2023-10-08T02:39:41;98316.63;;;27.35;nan
31225;BME280;17847;31.524;74.366;2023-10-08T02:42:11;98317.63;;;26.80;nan
31225;BME280;17847;31.524;74.366;2023-10-08T02:44:42;98318.03;;;26.88;nan
31225;BME280;17847;31.524;74.366;2023-10-08T02:47:15;98322.00;;;27.26;nan
31225;BME280;17847;31.524;74.366;2023-10-08T02:49:49;98314.69;;;27.35;nan
31225;BME280;17847;31.524;74.366;2023-10-08T02:52:21;98312.72;;;27.27;nan
31225;BME280;17847;31.524;74.366;2023-10-08T02:54:51;98320.66;;;27.46;nan
31225;BME280;17847;31.524;74.366;2023-10-08T02:57:22;98314.41;;;27.67;nan
31225;BME280;17847;31.524;74.366;2023-10-08T02:59:52;98324.50;;;27.45;nan
31225;BME280;17847;31.524;74.366;2023-10-08T03:02:23;98323.63;;;27.58;nan
31225;BME280;17847;31.524;74.366;2023-10-08T03:04:54;98327.34;;;27.62;nan
31225;BME280;17847;31.524;74.366;2023-10-08T03:07:24;98338.34;;;27.48;nan
31225;BME280;17847;31.524;74.366;2023-10-08T03:10:04;98327.06;;;27.72;nan
31225;BME280;17847;31.524;74.366;2023-10-08T03:12:46;98333.19;;;27.78;nan
31225;BME280;17847;31.524;74.366;2023-10-08T03:15:16;98334.03;;;27.87;nan
31225;BME280;17847;31.524;74.366;2023-10-08T03:18:00;98338.25;;;27.70;nan
31225;BME280;17847;31.524;74.366;2023-10-08T03:20:38;98332.88;;;27.79;nan
31225;BME280;17847;31.524;74.366;2023-10-08T03:23:09;98348.06;;;28.11;nan
31225;BME280;17847;31.524;74.366;2023-10-08T03:25:56;98342.81;;;28.15;nan
31225;BME280;17847;31.524;74.366;2023-10-08T03:28:46;98349.53;;;28.17;nan
31225;BME280;17847;31.524;74.366;2023-10-08T03:31:26;98344.41;;;28.16;nan
31225;BME280;17847;31.524;74.366;2023-10-08T03:34:16;98342.06;;;28.31;nan
31225;BME280;17847;31.524;74.366;2023-10-08T03:36:48;98352.13;;;28.22;nan
31225;BME280;17847;31.524;74.366;2023-10-08T03:39:19;98353.81;;;28.49;nan
31225;BME280;17847;31.524;74.366;2023-10-08T03:41:49;98354.59;;;28.49;nan
31225;BME280;17847;31.524;74.366;2023-10-08T03:44:34;98356.28;;;28.28;nan
31225;BME280;17847;31.524;74.366;2023-10-08T03:47:06;98367.06;;;28.42;nan
31225;BME280;17847;31.524;74.366;2023-10-08T03:49:39;98367.72;;;28.39;nan
31225;BME280;17847;31.524;74.366;2023-10-08T03:52:14;98364.38;;;28.50;nan
31225;BME280;17847;31.524;74.366;2023-10-08T03:54:44;98364.41;;;28.68;nan
31225;BME280;17847;31.524;74.366;2023-10-08T03:57:33;98362.06;;;29.00;nan
31225;BME280;17847;31.524;74.366;2023-10-08T04:00:13;98358.34;;;29.14;nan
31225;BME280;17847;31.524;74.366;2023-10-08T04:02:47;98355.16;;;29.12;nan
31225;BME280;17847;31.524;74.366;2023-10-08T04:05:29;98364.16;;;29.21;nan
31225;BME280;17847;31.524;74.366;2023-10-08T04:08:12;98359.47;;;29.30;nan
31225;BME280;17847;31.524;74.366;2023-10-08T04:11:11;98361.31;;;29.81;nan
31225;BME280;17847;31.524;74.366;2023-10-08T04:14:00;98349.22;;;30.28;nan
31225;BME280;17847;31.524;74.366;2023-10-08T04:16:32;98360.56;;;30.10;nan
31225;BME280;17847;31.524;74.366;2023-10-08T04:19:05;98356.84;;;30.52;nan
31225;BME280;17847;31.524;74.366;2023-10-08T04:21:36;98356.94;;;30.64;nan
31225;BME280;17847;31.524;74.366;2023-10-08T04:24:06;98362.13;;;30.78;nan
31225;BME280;17847;31.524;74.366;2023-10-08T04:26:37;98366.06;;;30.89;nan
31225;BME280;17847;31.524;74.366;2023-10-08T04:29:10;98367.66;;;30.90;nan
31225;BME280;17847;31.524;74.366;2023-10-08T04:31:45;98364.56;;;31.54;nan
31225;BME280;17847;31.524;74.366;2023-10-08T04:34:15;98367.28;;;31.87;nan
31225;BME280;17847;31.524;74.366;2023-10-08T04:36:48;98364.09;;;31.52;nan
31225;BME280;17847;31.524;74.366;2023-10-08T04:39:24;98366.94;;;31.88;nan
31225;BME280;17847;31.524;74.366;2023-10-08T04:42:15;98355.66;;;32.02;nan
31225;BME280;17847;31.524;74.366;2023-10-08T04:44:54;98361.72;;;32.56;nan
31225;BME280;17847;31.524;74.366;2023-10-08T04:47:23;98363.56;;;32.40;nan
31225;BME280;17847;31.524;74.366;2023-10-08T04:50:02;98366.47;;;32.95;nan
31225;BME280;17847;31.524;74.366;2023-10-08T04:52:34;98355.31;;;32.76;nan
31225;BME280;17847;31.524;74.366;2023-10-08T04:55:14;98360.38;;;32.62;nan
31225;BME280;17847;31.524;74.366;2023-10-08T04:57:49;98357.16;;;32.60;nan
31225;BME280;17847;31.524;74.366;2023-10-08T05:00:18;98359.47;;;33.10;nan
31225;BME280;17847;31.524;74.366;2023-10-08T05:03:07;98351.69;;;32.36;nan
31225;BME280;17847;31.524;74.366;2023-10-08T05:05:43;98351.19;;;32.82;nan
31225;BME280;17847;31.524;74.366;2023-10-08T05:08:44;98346.84;;;32.81;nan
31225;BME280;17847;31.524;74.366;2023-10-08T05:11:26;98345.28;;;32.68;nan
31225;BME280;17847;31.524;74.366;2023-10-08T05:14:15;98356.06;;;33.29;nan
31225;BME280;17847;31.524;74.366;2023-10-08T05:16:58;98350.75;;;32.56;nan
31225;BME280;17847;31.524;74.366;2023-10-08T05:19:43;98356.50;;;33.03;nan
31225;BME280;17847;31.524;74.366;2023-10-08T05:22:30;98352.81;;;33.23;nan
31225;BME280;17847;31.524;74.366;2023-10-08T05:25:02;98362.69;;;33.40;nan
31225;BME280;17847;31.524;74.366;2023-10-08T05:27:45;98355.81;;;33.18;nan
31225;BME280;17847;31.524;74.366;2023-10-08T05:30:19;98356.72;;;33.38;nan
31225;BME280;17847;31.524;74.366;2023-10-08T05:33:08;98356.47;;;33.43;nan
31225;BME280;17847;31.524;74.366;2023-10-08T05:35:39;98353.41;;;33.60;nan
31225;BME280;17847;31.524;74.366;2023-10-08T05:38:10;98350.97;;;33.71;nan
31225;BME280;17847;31.524;74.366;2023-10-08T05:41:06;98349.03;;;34.03;nan
31225;BME280;17847;31.524;74.366;2023-10-08T05:43:56;98345.59;;;33.47;nan
31225;BME280;17847;31.524;74.366;2023-10-08T05:46:43;98353.81;;;34.06;nan
31225;BME280;17847;31.524;74.366;2023-10-08T05:49:24;98340.88;;;33.91;nan
31225;BME280;17847;31.524;74.366;2023-10-08T05:52:00;98339.91;;;33.83;nan
31225;BME280;17847;31.524;74.366;2023-10-08T05:54:32;98333.69;;;34.33;nan
31225;BME280;17847;31.524;74.366;2023-10-08T05:57:07;98341.16;;;33.86;nan
31225;BME280;17847;31.524;74.366;2023-10-08T05:59:47;98333.53;;;33.51;nan
31225;BME280;17847;31.524;74.366;2023-10-08T06:05:18;98338.75;;;33.84;nan
31225;BME280;17847;31.524;74.366;2023-10-08T06:07:56;98336.38;;;33.98;nan
31225;BME280;17847;31.524;74.366;2023-10-08T06:10:39;98328.94;;;33.55;nan
31225;BME280;17847;31.524;74.366;2023-10-08T06:13:13;98323.44;;;33.99;nan
31225;BME280;17847;31.524;74.366;2023-10-08T06:15:49;98325.63;;;34.09;nan
31225;BME280;17847;31.524;74.366;2023-10-08T06:18:29;98324.22;;;33.83;nan
31225;BME280;17847;31.524;74.366;2023-10-08T06:21:04;98321.28;;;34.08;nan
31225;BME280;17847;31.524;74.366;2023-10-08T06:23:39;98318.16;;;33.62;nan
31225;BME280;17847;31.524;74.366;2023-10-08T06:26:10;98314.13;;;34.03;nan
31225;BME280;17847;31.524;74.366;2023-10-08T06:28:43;98311.50;;;34.26;nan
31225;BME280;17847;31.524;74.366;2023-10-08T06:31:13;98310.38;;;34.27;nan
31225;BME280;17847;31.524;74.366;2023-10-08T06:33:45;98312.03;;;34.32;nan
31225;BME280;17847;31.524;74.366;2023-10-08T06:36:15;98310.38;;;34.11;nan
31225;BME280;17847;31.524;74.366;2023-10-08T06:38:45;98312.97;;;34.20;nan
31225;BME280;17847;31.524;74.366;2023-10-08T06:41:18;98304.50;;;34.13;nan
31225;BME280;17847;31.524;74.366;2023-10-08T06:43:59;98302.25;;;33.68;nan
31225;BME280;17847;31.524;74.366;2023-10-08T06:46:31;98298.56;;;33.64;nan
31225;BME280;17847;31.524;74.366;2023-10-08T06:49:06;98290.81;;;33.22;nan
31225;BME280;17847;31.524;74.366;2023-10-08T06:51:43;98289.75;;;33.42;nan
31225;BME280;17847;31.524;74.366;2023-10-08T06:54:13;98292.72;;;33.50;nan
31225;BME280;17847;31.524;74.366;2023-10-08T06:56:46;98296.47;;;33.73;nan
31225;BME280;17847;31.524;74.366;2023-10-08T06:59:20;98291.81;;;33.61;nan
31225;BME280;17847;31.524;74.366;2023-10-08T07:01:54;98285.28;;;33.50;nan
31225;BME280;17847;31.524;74.366;2023-10-08T07:04:23;98286.75;;;33.48;nan
31225;BME280;17847;31.524;74.366;2023-10-08T07:06:53;98282.06;;;33.48;nan
31225;BME280;17847;31.524;74.366;2023-10-08T07:09:23;98277.34;;;33.33;nan
31225;BME280;17847;31.524;74.366;2023-10-08T07:11:58;98280.38;;;33.44;nan
31225;BME280;17847;31.524;74.366;2023-10-08T07:14:34;98276.91;;;33.31;nan
31225;BME280;17847;31.524;74.366;2023-10-08T07:17:04;98269.91;;;33.33;nan
31225;BME280;17847;31.524;74.366;2023-10-08T07:19:37;98267.59;;;33.20;nan
31225;BME280;17847;31.524;74.366;2023-10-08T07:22:09;98263.03;;;33.39;nan
31225;BME280;17847;31.524;74.366;2023-10-08T07:24:51;98265.59;;;33.64;nan
31225;BME280;17847;31.524;74.366;2023-10-08T07:27:21;98262.75;;;33.60;nan
31225;BME280;17847;31.524;74.366;2023-10-08T07:29:53;98265.06;;;33.42;nan
31225;BME280;17847;31.524;74.366;2023-10-08T07:32:25;98255.38;;;33.17;nan
31225;BME280;17847;31.524;74.366;2023-10-08T07:34:54;98253.44;;;33.33;nan
31225;BME280;17847;31.524;74.366;2023-10-08T07:37:26;98253.22;;;33.54;nan
31225;BME280;17847;31.524;74.366;2023-10-08T07:39:56;98253.47;;;33.49;nan
31225;BME280;17847;31.524;74.366;2023-10-08T07:42:27;98238.91;;;33.17;nan
31225;BME280;17847;31.524;74.366;2023-10-08T07:44:57;98241.56;;;33.29;nan
31225;BME280;17847;31.524;74.366;2023-10-08T07:47:26;98238.03;;;33.29;nan
31225;BME280;17847;31.524;74.366;2023-10-08T07:49:57;98236.63;;;33.35;nan
31225;BME280;17847;31.524;74.366;2023-10-08T07:52:27;98231.94;;;32.92;nan
31225;BME280;17847;31.524;74.366;2023-10-08T07:54:58;98235.25;;;32.85;nan
31225;BME280;17847;31.524;74.366;2023-10-08T07:57:27;98226.72;;;33.03;nan
31225;BME280;17847;31.524;74.366;2023-10-08T07:59:57;98230.25;;;33.03;nan
31225;BME280;17847;31.524;74.366;2023-10-08T08:02:46;98226.28;;;33.01;nan
31225;BME280;17847;31.524;74.366;2023-10-08T08:05:16;98223.06;;;32.98;nan
31225;BME280;17847;31.524;74.366;2023-10-08T08:07:45;98231.69;;;33.13;nan
31225;BME280;17847;31.524;74.366;2023-10-08T08:10:15;98223.78;;;33.23;nan
31225;BME280;17847;31.524;74.366;2023-10-08T08:12:47;98209.72;;;32.97;nan
31225;BME280;17847;31.524;74.366;2023-10-08T08:15:19;98208.56;;;32.98;nan
31225;BME280;17847;31.524;74.366;2023-10-08T08:17:49;98213.69;;;32.84;nan
31225;BME280;17847;31.524;74.366;2023-10-08T08:20:18;98211.84;;;32.88;nan
31225;BME280;17847;31.524;74.366;2023-10-08T08:22:47;98206.78;;;32.62;nan
31225;BME280;17847;31.524;74.366;2023-10-08T08:25:23;98208.22;;;32.72;nan
31225;BME280;17847;31.524;74.366;2023-10-08T08:28:02;98201.25;;;32.74;nan
31225;BME280;17847;31.524;74.366;2023-10-08T08:30:35;98196.03;;;32.85;nan
31225;BME280;17847;31.524;74.366;2023-10-08T08:33:05;98197.22;;;32.84;nan
31225;BME280;17847;31.524;74.366;2023-10-08T08:35:39;98190.22;;;32.86;nan
31225;BME280;17847;31.524;74.366;2023-10-08T08:38:08;98184.63;;;32.55;nan
31225;BME280;17847;31.524;74.366;2023-10-08T08:40:39;98191.25;;;32.66;nan
31225;BME280;17847;31.524;74.366;2023-10-08T08:43:09;98189.25;;;32.79;nan
31225;BME280;17847;31.524;74.366;2023-10-08T08:45:40;98185.53;;;32.87;nan
31225;BME280;17847;31.524;74.366;2023-10-08T08:48:10;98183.50;;;32.84;nan
31225;BME280;17847;31.524;74.366;2023-10-08T08:50:41;98188.69;;;32.73;nan
31225;BME280;17847;31.524;74.366;2023-10-08T08:53:11;98187.47;;;32.59;nan
31225;BME280;17847;31.524;74.366;2023-10-08T08:55:41;98187.59;;;32.62;nan
31225;BME280;17847;31.524;74.366;2023-10-08T08:58:12;98181.75;;;32.64;nan
31225;BME280;17847;31.524;74.366;2023-10-08T09:00:43;98178.06;;;32.72;nan
31225;BME280;17847;31.524;74.366;2023-10-08T09:03:18;98171.63;;;32.52;nan
31225;BME280;17847;31.524;74.366;2023-10-08T09:05:49;98169.03;;;32.71;nan
31225;BME280;17847;31.524;74.366;2023-10-08T09:08:19;98164.63;;;32.82;nan
31225;BME280;17847;31.524;74.366;2023-10-08T09:10:57;98157.63;;;32.69;nan
31225;BME280;17847;31.524;74.366;2023-10-08T09:13:34;98160.38;;;32.69;nan
31225;BME280;17847;31.524;74.366;2023-10-08T09:16:08;98157.13;;;32.79;nan
31225;BME280;17847;31.524;74.366;2023-10-08T09:18:37;98154.41;;;32.67;nan
31225;BME280;17847;31.524;74.366;2023-10-08T09:21:14;98150.13;;;32.82;nan
31225;BME280;17847;31.524;74.366;2023-10-08T09:23:44;98147.03;;;32.83;nan
31225;BME280;17847;31.524;74.366;2023-10-08T09:26:17;98152.53;;;32.83;nan
31225;BME280;17847;31.524;74.366;2023-10-08T09:28:48;98144.72;;;32.85;nan
31225;BME280;17847;31.524;74.366;2023-10-08T09:31:19;98142.22;;;32.80;nan
31225;BME280;17847;31.524;74.366;2023-10-08T09:33:56;98134.47;;;32.82;nan
31225;BME280;17847;31.524;74.366;2023-10-08T09:36:26;98139.75;;;32.75;nan
31225;BME280;17847;31.524;74.366;2023-10-08T09:39:08;98127.88;;;32.71;nan
31225;BME280;17847;31.524;74.366;2023-10-08T09:41:45;98131.59;;;32.63;nan
31225;BME280;17847;31.524;74.366;2023-10-08T09:44:24;98128.88;;;32.79;nan
31225;BME280;17847;31.524;74.366;2023-10-08T09:49:35;98125.44;;;32.54;nan
31225;BME280;17847;31.524;74.366;2023-10-08T09:52:07;98114.84;;;32.52;nan
31225;BME280;17847;31.524;74.366;2023-10-08T09:54:56;98113.22;;;32.51;nan
31225;BME280;17847;31.524;74.366;2023-10-08T09:57:32;98114.44;;;32.38;nan
31225;BME280;17847;31.524;74.366;2023-10-08T10:00:04;98105.41;;;32.38;nan
31225;BME280;17847;31.524;74.366;2023-10-08T10:02:35;98103.00;;;32.36;nan
31225;BME280;17847;31.524;74.366;2023-10-08T10:05:13;98090.44;;;32.35;nan
31225;BME280;17847;31.524;74.366;2023-10-08T10:07:55;98088.41;;;32.32;nan
31225;BME280;17847;31.524;74.366;2023-10-08T10:10:30;98095.25;;;32.38;nan
31225;BME280;17847;31.524;74.366;2023-10-08T10:13:03;98093.19;;;32.35;nan
31225;BME280;17847;31.524;74.366;2023-10-08T10:15:33;98091.72;;;32.38;nan
31225;BME280;17847;31.524;74.366;2023-10-08T10:20:43;98087.81;;;32.39;nan
31225;BME280;17847;31.524;74.366;2023-10-08T10:23:41;98093.09;;;32.32;nan
31225;BME280;17847;31.524;74.366;2023-10-08T10:31:43;98088.47;;;32.20;nan
31225;BME280;17847;31.524;74.366;2023-10-08T10:34:26;98086.78;;;32.16;nan
31225;BME280;17847;31.524;74.366;2023-10-08T10:36:59;98086.31;;;32.14;nan
31225;BME280;17847;31.524;74.366;2023-10-08T10:39:37;98085.19;;;32.15;nan
31225;BME280;17847;31.524;74.366;2023-10-08T10:42:10;98094.19;;;32.15;nan
31225;BME280;17847;31.524;74.366;2023-10-08T10:44:52;98093.78;;;32.13;nan
31225;BME280;17847;31.524;74.366;2023-10-08T10:47:27;98094.78;;;32.08;nan
31225;BME280;17847;31.524;74.366;2023-10-08T10:49:56;98089.97;;;32.05;nan
31225;BME280;17847;31.524;74.366;2023-10-08T10:52:35;98091.72;;;31.98;nan
31225;BME280;17847;31.524;74.366;2023-10-08T10:55:14;98087.28;;;31.93;nan
31225;BME280;17847;31.524;74.366;2023-10-08T10:57:53;98097.34;;;31.89;nan
31225;BME280;17847;31.524;74.366;2023-10-08T11:00:32;98099.75;;;31.91;nan
31225;BME280;17847;31.524;74.366;2023-10-08T11:03:03;98100.41;;;31.88;nan
31225;BME280;17847;31.524;74.366;2023-10-08T11:05:39;98097.13;;;31.82;nan
31225;BME280;17847;31.524;74.366;2023-10-08T11:08:16;98098.03;;;31.86;nan
31225;BME280;17847;31.524;74.366;2023-10-08T11:10:47;98091.44;;;31.75;nan
31225;BME280;17847;31.524;74.366;2023-10-08T11:13:23;98097.63;;;31.72;nan
31225;BME280;17847;31.524;74.366;2023-10-08T11:15:57;98113.38;;;31.63;nan
31225;BME280;17847;31.524;74.366;2023-10-08T11:18:28;98111.06;;;31.53;nan
31225;BME280;17847;31.524;74.366;2023-10-08T11:21:08;98107.66;;;31.44;nan
31225;BME280;17847;31.524;74.366;2023-10-08T11:23:48;98107.66;;;31.44;nan
31225;BME280;17847;31.524;74.366;2023-10-08T11:26:24;98109.03;;;31.38;nan
31225;BME280;17847;31.524;74.366;2023-10-08T11:29:06;98110.72;;;31.30;nan
31225;BME280;17847;31.524;74.366;2023-10-08T11:31:43;98109.25;;;31.20;nan
31225;BME280;17847;31.524;74.366;2023-10-08T11:34:14;98112.69;;;31.17;nan
31225;BME280;17847;31.524;74.366;2023-10-08T11:36:43;98110.84;;;31.09;nan
31225;BME280;17847;31.524;74.366;2023-10-08T11:39:18;98106.41;;;31.05;nan
31225;BME280;17847;31.524;74.366;2023-10-08T11:42:01;98101.25;;;31.03;nan
31225;BME280;17847;31.524;74.366;2023-10-08T11:44:35;98103.56;;;31.01;nan
31225;BME280;17847;31.524;74.366;2023-10-08T11:47:05;98110.00;;;30.97;nan
31225;BME280;17847;31.524;74.366;2023-10-08T11:49:50;98114.44;;;30.89;nan
31225;BME280;17847;31.524;74.366;2023-10-08T11:52:23;98113.50;;;30.85;nan
31225;BME280;17847;31.524;74.366;2023-10-08T11:54:52;98113.75;;;30.80;nan
31225;BME280;17847;31.524;74.366;2023-10-08T11:57:22;98118.75;;;30.78;nan
31225;BME280;17847;31.524;74.366;2023-10-08T11:59:54;98119.78;;;30.73;nan
31225;BME280;17847;31.524;74.366;2023-10-08T12:02:26;98115.09;;;30.62;nan
31225;BME280;17847;31.524;74.366;2023-10-08T12:04:59;98114.81;;;30.55;nan
31225;BME280;17847;31.524;74.366;2023-10-08T12:07:29;98121.41;;;30.54;nan
31225;BME280;17847;31.524;74.366;2023-10-08T12:09:58;98125.31;;;30.53;nan
31225;BME280;17847;31.524;74.366;2023-10-08T12:12:27;98114.91;;;30.46;nan
31225;BME280;17847;31.524;74.366;2023-10-08T12:15:02;98126.63;;;30.47;nan
31225;BME280;17847;31.524;74.366;2023-10-08T12:17:37;98117.47;;;30.43;nan
31225;BME280;17847;31.524;74.366;2023-10-08T12:20:08;98120.53;;;30.41;nan
31225;BME280;17847;31.524;74.366;2023-10-08T12:22:56;98128.28;;;30.39;nan
31225;BME280;17847;31.524;74.366;2023-10-08T12:25:28;98117.69;;;30.38;nan
31225;BME280;17847;31.524;74.366;2023-10-08T12:28:01;98124.97;;;30.33;nan
31225;BME280;17847;31.524;74.366;2023-10-08T12:30:33;98128.25;;;30.27;nan
31225;BME280;17847;31.524;74.366;2023-10-08T12:33:10;98126.38;;;30.19;nan
31225;BME280;17847;31.524;74.366;2023-10-08T12:35:44;98127.38;;;30.14;nan
31225;BME280;17847;31.524;74.366;2023-10-08T12:38:16;98136.56;;;30.10;nan
31225;BME280;17847;31.524;74.366;2023-10-08T12:40:50;98134.84;;;30.05;nan
31225;BME280;17847;31.524;74.366;2023-10-08T12:43:24;98137.78;;;30.00;nan
31225;BME280;17847;31.524;74.366;2023-10-08T12:45:56;98139.91;;;29.95;nan
31225;BME280;17847;31.524;74.366;2023-10-08T12:48:26;98142.03;;;29.89;nan
31225;BME280;17847;31.524;74.366;2023-10-08T12:50:56;98146.84;;;29.83;nan
31225;BME280;17847;31.524;74.366;2023-10-08T12:53:27;98143.19;;;29.79;nan
31225;BME280;17847;31.524;74.366;2023-10-08T12:56:18;98154.72;;;29.85;nan
31225;BME280;17847;31.524;74.366;2023-10-08T12:58:54;98144.47;;;29.82;nan
31225;BME280;17847;31.524;74.366;2023-10-08T13:01:24;98154.91;;;29.80;nan
31225;BME280;17847;31.524;74.366;2023-10-08T13:03:57;98155.47;;;29.73;nan
31225;BME280;17847;31.524;74.366;2023-10-08T13:06:30;98160.31;;;29.68;nan
31225;BME280;17847;31.524;74.366;2023-10-08T13:08:59;98152.13;;;29.68;nan
31225;BME280;17847;31.524;74.366;2023-10-08T13:11:29;98156.28;;;29.65;nan
31225;BME280;17847;31.524;74.366;2023-10-08T13:13:58;98168.53;;;29.59;nan
31225;BME280;17847;31.524;74.366;2023-10-08T13:16:28;98166.94;;;29.58;nan
31225;BME280;17847;31.524;74.366;2023-10-08T13:19:00;98172.38;;;29.58;nan
31225;BME280;17847;31.524;74.366;2023-10-08T13:21:30;98175.78;;;29.55;nan
31225;BME280;17847;31.524;74.366;2023-10-08T13:24:01;98168.59;;;29.51;nan
31225;BME280;17847;31.524;74.366;2023-10-08T13:26:31;98176.28;;;29.49;nan
31225;BME280;17847;31.524;74.366;2023-10-08T13:29:01;98186.09;;;29.50;nan
31225;BME280;17847;31.524;74.366;2023-10-08T13:31:33;98179.38;;;29.47;nan
31225;BME280;17847;31.524;74.366;2023-10-08T13:34:06;98183.88;;;29.43;nan
31225;BME280;17847;31.524;74.366;2023-10-08T13:36:38;98184.19;;;29.41;nan
31225;BME280;17847;31.524;74.366;2023-10-08T13:39:08;98188.84;;;29.41;nan
31225;BME280;17847;31.524;74.366;2023-10-08T13:41:38;98180.66;;;29.41;nan
31225;BME280;17847;31.524;74.366;2023-10-08T13:44:10;98180.19;;;29.39;nan
31225;BME280;17847;31.524;74.366;2023-10-08T13:46:41;98189.97;;;29.40;nan
31225;BME280;17847;31.524;74.366;2023-10-08T13:49:29;98184.19;;;29.41;nan
31225;BME280;17847;31.524;74.366;2023-10-08T13:51:58;98188.38;;;29.39;nan
31225;BME280;17847;31.524;74.366;2023-10-08T13:54:28;98184.38;;;29.36;nan
31225;BME280;17847;31.524;74.366;2023-10-08T13:57:06;98199.94;;;29.36;nan
31225;BME280;17847;31.524;74.366;2023-10-08T13:59:38;98208.94;;;29.28;nan
31225;BME280;17847;31.524;74.366;2023-10-08T14:02:10;98212.66;;;29.23;nan